Time;durP1;ratioP1;P1;durP2;ratioP2;P2;SDS_P1;SDS_P2;PMS_P1;PMS_P2;Temp;Humidity;BMP_temperature;BMP_pressure;BME280_temperature;BME280_humidity;BME280_pressure;Samples;Min_cycle;Max_cycle;Signal;HPM_P1;HPM_P2
2022/01/06 00:01:42;;;;;;;3.22;2.00;;;4.10;99.90;;;;;;5034243;28;20041;-91
2022/01/06 00:04:09;;;;;;;10.10;2.63;;;4.10;99.90;;;;;;5033439;28;20038;-88
2022/01/06 00:06:40;;;;;;;7.60;2.17;;;4.10;99.90;;;;;;5020757;28;20050;-87
2022/01/06 00:09:09;;;;;;;8.93;2.60;;;4.00;99.90;;;;;;5028870;28;20056;-86
2022/01/06 00:11:36;;;;;;;7.57;2.25;;;4.10;99.90;;;;;;5009415;28;20029;-88
2022/01/06 00:14:22;;;;;;;4.90;1.90;;;4.10;99.90;;;;;;5027940;28;20032;-88
2022/01/06 00:24:48;;;;;;;4.60;1.92;;;4.10;99.90;;;;;;5033455;28;20038;-87
2022/01/06 00:27:14;;;;;;;9.15;2.22;;;4.10;99.90;;;;;;5035206;28;20068;-86
2022/01/06 00:29:41;;;;;;;4.90;2.10;;;4.10;99.90;;;;;;5036499;28;20093;-89
2022/01/06 00:32:07;;;;;;;9.43;2.45;;;4.10;99.90;;;;;;5037557;28;20029;-88
2022/01/06 00:34:33;;;;;;;4.90;2.35;;;4.10;99.90;;;;;;5037334;28;20034;-88
2022/01/06 00:37:00;;;;;;;6.50;2.47;;;4.10;99.90;;;;;;5037604;28;20041;-87
2022/01/06 00:39:28;;;;;;;8.27;2.58;;;4.10;99.90;;;;;;5036064;28;20038;-88
2022/01/06 00:41:59;;;;;;;14.55;3.22;;;4.00;99.90;;;;;;5033931;28;20371;-88
2022/01/06 00:44:25;;;;;;;8.68;2.00;;;4.00;99.90;;;;;;5036051;28;20080;-87
2022/01/06 00:46:52;;;;;;;8.48;2.22;;;4.00;99.90;;;;;;5034332;28;20022;-89
2022/01/06 00:49:20;;;;;;;7.50;2.30;;;4.00;99.90;;;;;;5034118;28;20038;-88
2022/01/06 00:51:46;;;;;;;6.50;2.30;;;4.00;99.90;;;;;;5034179;28;20030;-87
2022/01/06 00:54:15;;;;;;;7.85;2.65;;;4.00;99.90;;;;;;5033426;28;20096;-89
2022/01/06 00:56:41;;;;;;;7.45;2.30;;;4.10;99.90;;;;;;5018989;28;20026;-88
2022/01/06 00:59:07;;;;;;;7.70;2.05;;;4.00;99.90;;;;;;5034826;28;20030;-88
2022/01/06 01:01:33;;;;;;;10.50;1.77;;;4.00;99.90;;;;;;5034044;28;20018;-88
2022/01/06 01:03:59;;;;;;;10.70;2.30;;;4.00;99.90;;;;;;5034714;28;20108;-89
2022/01/06 01:06:25;;;;;;;6.72;1.83;;;4.00;99.90;;;;;;5033573;28;20591;-87
2022/01/06 01:08:51;;;;;;;6.93;1.95;;;4.10;99.90;;;;;;5029717;28;20033;-87
2022/01/06 01:11:17;;;;;;;6.78;2.25;;;4.00;99.90;;;;;;5010703;28;20030;-87
2022/01/06 01:13:54;;;;;;;7.20;2.22;;;4.10;99.90;;;;;;5031851;28;20029;-92
2022/01/06 01:16:25;;;;;;;7.07;1.95;;;4.00;99.90;;;;;;5034957;28;20175;-88
2022/01/06 01:18:52;;;;;;;7.13;2.15;;;4.00;99.90;;;;;;5027977;28;20030;-89
2022/01/06 01:21:19;;;;;;;5.15;1.67;;;4.00;99.90;;;;;;5028818;28;20025;-86
2022/01/06 01:23:46;;;;;;;8.65;2.38;;;4.00;99.90;;;;;;5031141;28;20037;-88
2022/01/06 01:26:12;;;;;;;5.30;2.63;;;4.00;99.90;;;;;;5014195;28;20041;-88
2022/01/06 01:28:44;;;;;;;7.80;1.85;;;4.00;99.90;;;;;;5029317;28;20034;-86
2022/01/06 01:31:23;;;;;;;5.97;1.75;;;4.00;99.90;;;;;;5029959;28;20041;-87
2022/01/06 01:33:51;;;;;;;5.22;1.50;;;4.00;99.90;;;;;;5023397;28;20024;-88
2022/01/06 01:36:17;;;;;;;14.10;2.35;;;4.00;99.90;;;;;;5039722;28;20041;-90
2022/01/06 01:38:43;;;;;;;6.60;1.98;;;4.00;99.90;;;;;;5039889;28;20041;-89
2022/01/06 01:41:09;;;;;;;7.85;2.00;;;3.90;99.90;;;;;;5039543;28;20033;-91
2022/01/06 01:43:36;;;;;;;4.97;2.00;;;4.00;99.90;;;;;;5039684;28;20105;-90
2022/01/06 01:46:12;;;;;;;4.82;2.03;;;4.00;99.90;;;;;;5023034;28;20018;-89
2022/01/06 01:48:43;;;;;;;6.50;2.33;;;4.00;99.90;;;;;;5038888;28;20026;-89
2022/01/06 01:51:09;;;;;;;5.40;1.98;;;3.90;99.90;;;;;;5038878;28;20064;-88
2022/01/06 01:53:36;;;;;;;11.63;2.78;;;4.00;99.90;;;;;;5038931;28;20010;-88
2022/01/06 01:56:08;;;;;;;6.78;1.80;;;4.00;99.90;;;;;;5038496;28;20041;-87
2022/01/06 01:58:36;;;;;;;7.03;2.53;;;3.90;99.90;;;;;;5039094;28;20037;-88
2022/01/06 02:01:03;;;;;;;7.50;2.05;;;3.90;99.90;;;;;;5039032;28;20110;-88
2022/01/06 02:03:30;;;;;;;7.15;1.95;;;3.90;99.90;;;;;;5038990;28;20014;-86
2022/01/06 02:06:02;;;;;;;9.45;2.20;;;3.90;99.90;;;;;;5021063;28;20060;-89
2022/01/06 02:08:31;;;;;;;10.18;2.10;;;3.90;99.90;;;;;;5037857;28;20033;-88
2022/01/06 02:10:57;;;;;;;4.20;2.25;;;3.90;99.90;;;;;;5021434;28;20041;-88
2022/01/06 02:13:29;;;;;;;7.50;1.88;;;3.90;99.90;;;;;;5036308;28;20056;-88
2022/01/06 02:15:59;;;;;;;8.02;2.20;;;3.90;99.90;;;;;;5028852;28;20054;-88
2022/01/06 02:18:26;;;;;;;7.20;2.03;;;3.90;99.90;;;;;;5028628;28;20034;-88
2022/01/06 02:20:53;;;;;;;7.57;2.20;;;3.80;99.90;;;;;;5026998;28;20022;-86
2022/01/06 02:23:21;;;;;;;17.60;2.40;;;3.90;99.90;;;;;;5028417;28;20026;-88
2022/01/06 02:25:51;;;;;;;9.57;2.40;;;3.80;99.90;;;;;;5030534;28;20057;-86
2022/01/06 02:28:22;;;;;;;6.82;2.38;;;3.80;99.90;;;;;;5028376;28;20049;-87
2022/01/06 02:30:51;;;;;;;8.80;2.08;;;3.90;99.90;;;;;;5035756;28;20049;-89
2022/01/06 02:33:18;;;;;;;8.27;2.38;;;3.90;99.90;;;;;;5038323;28;20262;-88
2022/01/06 02:35:45;;;;;;;7.93;2.40;;;3.90;99.90;;;;;;5037831;28;20060;-88
2022/01/06 02:38:11;;;;;;;7.25;2.17;;;3.90;99.90;;;;;;5038466;28;20006;-89
2022/01/06 02:40:38;;;;;;;8.13;2.05;;;3.80;99.90;;;;;;5020909;28;20038;-89
2022/01/06 02:43:06;;;;;;;14.40;2.55;;;3.90;99.90;;;;;;5036177;28;20500;-87
2022/01/06 02:45:36;;;;;;;8.48;2.83;;;3.90;99.90;;;;;;5031208;28;20052;-86
2022/01/06 02:48:08;;;;;;;5.93;1.83;;;3.90;99.90;;;;;;5027165;28;20022;-87
2022/01/06 02:50:41;;;;;;;9.77;2.38;;;3.90;99.90;;;;;;5026727;28;20044;-86
2022/01/06 02:53:08;;;;;;;8.32;1.80;;;3.90;99.90;;;;;;5027724;28;20045;-87
2022/01/06 02:55:36;;;;;;;10.32;2.85;;;3.90;99.90;;;;;;5029007;28;20053;-84
2022/01/06 02:58:02;;;;;;;12.55;2.72;;;3.90;99.90;;;;;;5030355;28;20034;-83
2022/01/06 03:00:28;;;;;;;7.15;2.22;;;3.90;99.90;;;;;;5026498;28;20025;-82
2022/01/06 03:02:54;;;;;;;10.43;2.95;;;3.90;99.90;;;;;;5027056;28;20109;-86
2022/01/06 03:05:20;;;;;;;10.45;2.17;;;3.90;99.90;;;;;;5026409;28;20018;-84
2022/01/06 03:07:48;;;;;;;9.13;2.20;;;3.90;99.90;;;;;;5052181;22;20045;-84
2022/01/06 03:10:16;;;;;;;5.68;2.13;;;3.90;99.90;;;;;;5026503;28;20029;-83
2022/01/06 03:12:46;;;;;;;3.03;1.75;;;3.90;99.90;;;;;;5045034;28;20034;-85
2022/01/06 03:15:22;;;;;;;5.75;1.90;;;3.90;99.90;;;;;;5043819;28;20430;-86
2022/01/06 03:17:51;;;;;;;6.85;2.13;;;3.90;99.90;;;;;;5032353;28;20036;-84
2022/01/06 03:20:19;;;;;;;8.48;2.20;;;3.90;99.90;;;;;;4992272;28;20033;-84
2022/01/06 03:22:45;;;;;;;12.00;2.10;;;3.90;99.90;;;;;;4992109;28;20436;-84
2022/01/06 03:25:12;;;;;;;4.97;1.92;;;3.90;99.90;;;;;;5008793;28;20080;-84
2022/01/06 03:27:40;;;;;;;8.55;2.60;;;3.90;99.90;;;;;;5025882;28;20032;-83
2022/01/06 03:30:08;;;;;;;7.68;2.20;;;3.90;99.90;;;;;;5023996;28;20029;-85
2022/01/06 03:32:34;;;;;;;10.73;2.28;;;3.90;99.90;;;;;;5023692;28;20034;-84
2022/01/06 03:34:59;;;;;;;6.32;2.10;;;3.90;99.90;;;;;;5023753;28;20086;-83
2022/01/06 03:37:26;;;;;;;5.53;1.90;;;4.00;99.90;;;;;;5024331;28;20086;-84
2022/01/06 03:39:52;;;;;;;5.45;2.40;;;4.00;99.90;;;;;;5006789;28;20026;-85
2022/01/06 03:42:17;;;;;;;4.68;2.13;;;4.00;99.90;;;;;;5010503;28;20061;-85
2022/01/06 03:44:43;;;;;;;6.95;2.30;;;4.00;99.90;;;;;;5029567;28;20041;-81
2022/01/06 03:47:09;;;;;;;6.43;2.25;;;4.00;99.90;;;;;;5030289;28;20083;-83
2022/01/06 03:49:35;;;;;;;6.15;1.98;;;4.00;99.90;;;;;;5012576;28;20036;-82
2022/01/06 03:52:01;;;;;;;6.85;1.95;;;4.00;99.90;;;;;;5030414;28;20090;-83
2022/01/06 03:54:27;;;;;;;5.55;2.10;;;4.00;99.90;;;;;;5029813;28;20030;-84
2022/01/06 03:56:53;;;;;;;8.48;2.50;;;4.00;99.90;;;;;;5030009;28;20575;-86
2022/01/06 03:59:19;;;;;;;11.10;2.55;;;4.00;99.90;;;;;;5031772;28;20458;-84
2022/01/06 04:01:46;;;;;;;5.45;2.13;;;4.00;99.90;;;;;;5009944;28;20041;-85
2022/01/06 04:04:13;;;;;;;4.55;2.03;;;3.90;99.90;;;;;;5007592;28;20034;-84
2022/01/06 04:06:40;;;;;;;6.38;2.30;;;4.00;99.90;;;;;;5007396;28;20033;-85
2022/01/06 04:09:06;;;;;;;8.82;2.10;;;4.00;99.90;;;;;;4991247;28;20025;-85
2022/01/06 04:11:32;;;;;;;4.35;1.73;;;4.00;99.90;;;;;;5026757;28;20029;-84
2022/01/06 04:13:58;;;;;;;9.15;2.10;;;4.00;99.90;;;;;;5030319;28;20042;-84
2022/01/06 04:16:25;;;;;;;5.95;2.00;;;4.00;99.90;;;;;;5013746;28;20029;-84
2022/01/06 04:18:51;;;;;;;6.85;2.00;;;4.00;99.90;;;;;;5008980;28;20053;-84
2022/01/06 04:21:17;;;;;;;6.28;1.88;;;4.00;99.90;;;;;;5013135;28;20030;-84
2022/01/06 04:23:43;;;;;;;8.38;2.00;;;4.00;99.90;;;;;;5029884;28;20029;-84
2022/01/06 04:26:09;;;;;;;8.32;2.60;;;4.00;99.90;;;;;;5032410;28;20026;-85
2022/01/06 04:28:36;;;;;;;9.30;2.42;;;4.00;99.90;;;;;;5020510;28;20089;-83
2022/01/06 04:31:02;;;;;;;6.07;2.20;;;4.00;99.90;;;;;;5021629;28;20045;-83
2022/01/06 04:33:28;;;;;;;5.68;2.03;;;4.00;99.90;;;;;;5017205;28;20036;-84
2022/01/06 04:35:54;;;;;;;7.43;2.28;;;4.00;99.90;;;;;;5010420;28;20073;-83
2022/01/06 04:38:21;;;;;;;14.80;2.42;;;4.00;99.90;;;;;;5039961;28;20014;-82
2022/01/06 04:40:47;;;;;;;4.65;2.45;;;4.00;99.90;;;;;;5036924;28;20034;-87
2022/01/06 04:43:13;;;;;;;14.68;2.20;;;4.00;99.90;;;;;;5028517;28;20030;-84
2022/01/06 04:45:39;;;;;;;9.05;2.25;;;4.00;99.90;;;;;;5038051;28;20018;-84
2022/01/06 04:48:05;;;;;;;7.88;2.50;;;4.00;99.90;;;;;;5040714;28;20014;-84
2022/01/06 04:50:30;;;;;;;11.23;2.40;;;4.00;99.90;;;;;;4996545;28;20057;-85
2022/01/06 04:52:57;;;;;;;7.95;2.40;;;4.00;99.90;;;;;;5035046;28;20045;-82
2022/01/06 04:55:23;;;;;;;5.47;2.50;;;4.00;99.90;;;;;;5023371;28;20039;-84
2022/01/06 04:57:49;;;;;;;7.47;2.45;;;4.00;99.90;;;;;;5017268;28;20030;-83
2022/01/06 05:00:15;;;;;;;5.80;2.88;;;4.00;99.90;;;;;;5029435;28;20500;-84
2022/01/06 05:02:40;;;;;;;12.35;3.03;;;4.00;99.90;;;;;;5030959;28;20041;-81
2022/01/06 05:05:07;;;;;;;5.70;2.47;;;4.00;99.90;;;;;;5034791;28;20061;-85
2022/01/06 05:07:32;;;;;;;8.75;2.38;;;4.00;99.90;;;;;;5017439;28;20064;-85
2022/01/06 05:09:58;;;;;;;4.75;2.40;;;4.00;99.90;;;;;;5034115;28;20042;-86
2022/01/06 05:12:24;;;;;;;4.90;2.28;;;3.90;99.90;;;;;;5032968;28;20037;-84
2022/01/06 05:14:50;;;;;;;6.65;2.08;;;3.90;99.90;;;;;;5028232;28;20044;-84
2022/01/06 05:17:15;;;;;;;6.25;2.42;;;3.90;99.90;;;;;;5025300;28;20022;-85
2022/01/06 05:19:41;;;;;;;9.15;3.20;;;3.90;99.90;;;;;;5023733;28;20461;-85
2022/01/06 05:22:07;;;;;;;10.65;2.35;;;3.90;99.90;;;;;;5026965;28;20077;-83
2022/01/06 05:24:35;;;;;;;6.20;2.38;;;3.90;99.90;;;;;;5011207;28;20029;-85
2022/01/06 05:27:01;;;;;;;6.03;2.22;;;3.90;99.90;;;;;;5032522;28;20025;-85
2022/01/06 05:29:27;;;;;;;9.38;2.50;;;3.90;99.90;;;;;;5032668;28;20067;-85
2022/01/06 05:31:52;;;;;;;7.75;2.70;;;3.90;99.90;;;;;;5032098;28;20030;-84
2022/01/06 05:34:18;;;;;;;6.35;2.72;;;3.90;99.90;;;;;;5008440;28;20034;-84
2022/01/06 05:36:44;;;;;;;6.13;2.97;;;3.90;99.90;;;;;;5022840;28;20041;-84
2022/01/06 05:39:10;;;;;;;8.73;2.92;;;3.90;99.90;;;;;;5008328;28;20093;-83
2022/01/06 05:41:36;;;;;;;6.40;2.53;;;3.90;99.90;;;;;;5024207;28;20045;-85
2022/01/06 05:44:03;;;;;;;7.68;2.60;;;3.90;99.90;;;;;;5023731;28;20037;-84
2022/01/06 05:46:29;;;;;;;6.38;2.47;;;3.90;99.90;;;;;;5025175;28;20068;-86
2022/01/06 05:48:55;;;;;;;6.93;2.63;;;3.90;99.90;;;;;;5024643;28;20030;-83
2022/01/06 05:51:20;;;;;;;5.47;2.50;;;3.90;99.90;;;;;;5009986;28;20378;-86
2022/01/06 05:53:46;;;;;;;11.93;2.65;;;4.00;99.90;;;;;;5030015;28;20022;-82
2022/01/06 05:56:12;;;;;;;10.57;3.35;;;4.00;99.90;;;;;;5014209;28;20060;-83
2022/01/06 05:58:40;;;;;;;9.88;3.38;;;3.90;99.90;;;;;;4999584;28;20109;-84
2022/01/06 06:01:07;;;;;;;7.65;2.67;;;3.90;99.90;;;;;;5017783;28;20101;-83
2022/01/06 06:03:36;;;;;;;7.57;2.97;;;3.90;99.90;;;;;;5017331;28;20034;-83
2022/01/06 06:06:02;;;;;;;10.48;3.00;;;3.90;99.90;;;;;;5031682;28;20141;-85
2022/01/06 06:08:28;;;;;;;8.13;3.38;;;3.80;99.90;;;;;;5030561;28;20030;-83
2022/01/06 06:10:54;;;;;;;8.25;2.92;;;3.90;99.90;;;;;;5032458;28;20029;-85
2022/01/06 06:13:20;;;;;;;5.93;2.70;;;3.80;99.90;;;;;;5036044;28;20022;-81
2022/01/06 06:15:46;;;;;;;6.05;3.00;;;3.80;99.90;;;;;;5036252;28;20101;-82
2022/01/06 06:18:12;;;;;;;8.07;2.83;;;3.80;99.90;;;;;;5019209;28;20078;-82
2022/01/06 06:20:39;;;;;;;9.48;2.90;;;3.80;99.90;;;;;;5036739;28;20014;-84
2022/01/06 06:23:05;;;;;;;7.65;2.58;;;3.70;99.90;;;;;;5019182;28;20104;-85
2022/01/06 06:25:31;;;;;;;8.30;2.60;;;3.80;99.90;;;;;;5017495;28;20084;-83
2022/01/06 06:27:57;;;;;;;7.35;2.90;;;3.80;99.90;;;;;;5034341;28;20041;-85
2022/01/06 06:30:23;;;;;;;6.63;2.67;;;3.80;99.90;;;;;;5033804;28;20030;-83
2022/01/06 06:32:48;;;;;;;9.18;3.05;;;3.80;99.90;;;;;;5017405;28;20405;-82
2022/01/06 06:35:14;;;;;;;10.30;2.75;;;3.80;99.90;;;;;;5035772;28;20026;-83
2022/01/06 06:37:40;;;;;;;5.55;2.80;;;3.90;99.90;;;;;;5034460;28;20026;-84
2022/01/06 06:40:07;;;;;;;11.68;3.25;;;3.90;99.90;;;;;;5034982;28;20006;-83
2022/01/06 06:42:33;;;;;;;8.90;2.30;;;3.90;99.90;;;;;;5035360;28;20048;-85
2022/01/06 06:44:59;;;;;;;7.38;2.63;;;3.90;99.90;;;;;;5035398;28;20038;-84
2022/01/06 06:47:25;;;;;;;11.65;2.97;;;3.90;99.90;;;;;;5035172;28;20075;-85
2022/01/06 06:49:51;;;;;;;8.52;3.03;;;3.90;99.90;;;;;;5036218;28;20045;-83
2022/01/06 06:52:17;;;;;;;5.88;2.85;;;4.00;99.90;;;;;;5035837;28;20036;-81
2022/01/06 06:54:42;;;;;;;8.65;2.50;;;4.00;99.90;;;;;;5035961;28;20034;-84
2022/01/06 06:57:09;;;;;;;10.63;3.00;;;4.00;99.90;;;;;;5035602;28;20014;-82
2022/01/06 06:59:35;;;;;;;7.45;2.88;;;4.00;99.90;;;;;;5035936;28;20038;-84
2022/01/06 07:02:01;;;;;;;8.40;2.58;;;4.00;99.90;;;;;;5035903;28;20040;-84
2022/01/06 07:04:27;;;;;;;16.98;4.10;;;4.00;99.90;;;;;;5019289;28;20018;-83
2022/01/06 07:06:52;;;;;;;7.07;2.65;;;4.00;99.90;;;;;;5019414;28;20073;-82
2022/01/06 07:09:18;;;;;;;9.77;2.83;;;4.10;99.90;;;;;;5019451;28;20056;-81
2022/01/06 07:11:44;;;;;;;5.22;2.53;;;4.10;99.90;;;;;;5035802;28;20102;-84
2022/01/06 07:14:09;;;;;;;6.95;2.42;;;4.10;99.90;;;;;;5037404;28;20072;-84
2022/01/06 07:16:35;;;;;;;7.95;2.40;;;4.10;99.90;;;;;;5040282;28;20060;-85
2022/01/06 07:19:01;;;;;;;5.28;2.58;;;4.10;99.90;;;;;;5039137;28;20045;-83
2022/01/06 07:21:27;;;;;;;7.18;2.78;;;4.10;99.90;;;;;;5033426;28;20527;-83
2022/01/06 07:23:53;;;;;;;7.35;2.42;;;4.10;99.90;;;;;;5030981;28;20034;-86
2022/01/06 07:26:19;;;;;;;8.18;2.72;;;4.10;99.90;;;;;;5029961;28;20061;-86
2022/01/06 07:28:45;;;;;;;9.07;2.67;;;4.10;99.90;;;;;;5031046;28;20026;-84
2022/01/06 07:31:11;;;;;;;8.27;2.78;;;4.10;99.90;;;;;;5014621;28;20481;-86
2022/01/06 07:33:37;;;;;;;8.10;2.75;;;4.20;99.90;;;;;;5032590;28;20022;-85
2022/01/06 07:36:03;;;;;;;9.60;3.08;;;4.30;99.90;;;;;;5038232;28;20089;-85
2022/01/06 07:38:29;;;;;;;10.88;3.00;;;4.20;99.90;;;;;;5041774;28;20042;-85
2022/01/06 07:40:56;;;;;;;12.38;2.70;;;4.20;99.90;;;;;;5039775;28;20026;-85
2022/01/06 07:43:25;;;;;;;6.18;2.80;;;4.20;99.90;;;;;;5020644;28;20033;-86
2022/01/06 07:45:51;;;;;;;9.63;3.20;;;4.30;99.90;;;;;;5022385;28;20033;-83
2022/01/06 07:48:24;;;;;;;6.93;2.67;;;4.30;99.90;;;;;;5041862;28;20034;-83
2022/01/06 07:50:52;;;;;;;8.18;2.75;;;4.30;99.90;;;;;;5039682;28;20121;-85
2022/01/06 07:53:18;;;;;;;8.88;3.00;;;4.40;99.90;;;;;;5020647;28;20041;-83
2022/01/06 07:55:43;;;;;;;8.77;2.80;;;4.50;99.90;;;;;;5037211;28;20080;-84
2022/01/06 07:58:09;;;;;;;9.00;2.75;;;4.50;99.90;;;;;;5038803;28;20010;-86
2022/01/06 08:00:35;;;;;;;5.78;2.60;;;4.60;99.90;;;;;;5039724;28;20021;-82
2022/01/06 08:03:01;;;;;;;9.70;2.72;;;4.60;99.90;;;;;;5043992;28;20018;-85
2022/01/06 08:05:27;;;;;;;9.57;3.15;;;4.60;99.90;;;;;;5042101;28;20010;-84
2022/01/06 08:07:54;;;;;;;10.55;2.72;;;4.70;99.90;;;;;;5019476;28;20125;-84
2022/01/06 08:10:21;;;;;;;9.45;3.00;;;4.80;99.90;;;;;;5027055;28;20036;-86
2022/01/06 08:12:47;;;;;;;7.93;2.38;;;4.80;99.90;;;;;;5058226;28;20054;-84
2022/01/06 08:15:14;;;;;;;8.38;2.08;;;4.90;99.90;;;;;;5022744;28;20041;-84
2022/01/06 08:17:41;;;;;;;10.23;2.90;;;4.90;99.90;;;;;;5021702;28;20527;-83
2022/01/06 08:20:09;;;;;;;5.28;2.88;;;5.00;99.90;;;;;;5039757;28;20022;-82
2022/01/06 08:22:35;;;;;;;6.53;2.47;;;5.00;99.90;;;;;;5040680;28;20026;-84
2022/01/06 08:25:03;;;;;;;9.32;2.42;;;5.10;99.90;;;;;;5039959;28;20017;-83
2022/01/06 08:27:29;;;;;;;8.23;2.42;;;5.10;99.90;;;;;;5034228;28;20022;-85
2022/01/06 08:29:55;;;;;;;4.30;2.15;;;5.40;99.90;;;;;;5036165;28;20333;-83
2022/01/06 08:32:21;;;;;;;4.30;1.80;;;5.60;99.90;;;;;;5009373;28;20431;-86
2022/01/06 08:34:47;;;;;;;6.97;2.33;;;6.00;99.90;;;;;;5025818;28;20029;-82
2022/01/06 08:37:13;;;;;;;6.75;2.28;;;6.50;99.90;;;;;;5023489;28;20030;-83
2022/01/06 08:39:39;;;;;;;5.78;2.17;;;6.90;99.90;;;;;;5022172;28;20025;-83
2022/01/06 08:42:06;;;;;;;6.07;2.20;;;7.30;99.90;;;;;;5023053;28;20036;-84
2022/01/06 08:44:31;;;;;;;5.82;2.55;;;8.00;99.90;;;;;;5023548;28;20034;-85
2022/01/06 08:46:59;;;;;;;6.78;2.22;;;8.40;99.90;;;;;;5023823;28;20054;-84
2022/01/06 08:49:25;;;;;;;5.60;1.80;;;9.10;99.90;;;;;;5023527;28;20040;-83
2022/01/06 08:51:51;;;;;;;7.70;2.35;;;9.80;99.90;;;;;;5023954;28;20058;-84
2022/01/06 08:54:17;;;;;;;4.80;1.90;;;10.20;99.10;;;;;;5025036;28;20030;-85
2022/01/06 08:56:42;;;;;;;4.90;2.20;;;10.30;98.50;;;;;;5022482;28;20026;-85
2022/01/06 08:59:08;;;;;;;4.05;1.75;;;10.00;98.40;;;;;;5023954;28;20026;-85
2022/01/06 09:01:34;;;;;;;7.90;1.80;;;9.90;98.50;;;;;;5008221;28;20102;-85
2022/01/06 09:04:00;;;;;;;5.25;2.00;;;10.30;98.00;;;;;;5027744;28;20034;-86
2022/01/06 09:08:55;;;;;;;7.20;1.85;;;10.80;97.10;;;;;;5009563;28;20042;-85
2022/01/06 09:11:21;;;;;;;5.63;1.88;;;11.70;95.90;;;;;;5009740;28;20156;-85
2022/01/06 09:13:47;;;;;;;6.80;2.25;;;11.20;95.60;;;;;;4994223;28;20065;-85
2022/01/06 09:16:13;;;;;;;3.50;1.80;;;11.80;95.30;;;;;;5008230;28;20026;-85
2022/01/06 09:18:41;;;;;;;7.50;2.55;;;11.90;94.40;;;;;;4976244;28;20023;-85
2022/01/06 09:21:08;;;;;;;6.60;1.90;;;11.30;95.50;;;;;;4956271;28;20054;-84
2022/01/06 09:23:35;;;;;;;6.57;1.92;;;12.10;94.30;;;;;;4970685;28;20239;-86
2022/01/06 09:26:01;;;;;;;5.18;2.25;;;11.60;94.90;;;;;;4971214;28;20023;-87
2022/01/06 09:28:27;;;;;;;6.30;2.50;;;12.60;93.70;;;;;;4990858;28;20035;-85
2022/01/06 09:30:55;;;;;;;3.45;1.83;;;13.40;92.40;;;;;;4990244;28;20023;-84
2022/01/06 09:33:22;;;;;;;5.90;1.60;;;13.80;91.70;;;;;;4975994;28;20033;-86
2022/01/06 09:35:55;;;;;;;7.18;2.40;;;13.90;90.90;;;;;;4996739;28;20090;-86
2022/01/06 09:38:23;;;;;;;4.63;2.03;;;13.90;90.50;;;;;;4991198;28;20086;-86
2022/01/06 09:40:49;;;;;;;5.90;2.30;;;13.60;90.90;;;;;;4989837;28;20027;-86
2022/01/06 09:43:15;;;;;;;9.60;2.90;;;13.60;90.80;;;;;;4984413;28;20063;-85
2022/01/06 09:45:43;;;;;;;7.38;2.13;;;13.50;90.80;;;;;;4966969;28;20050;-86
2022/01/06 09:48:08;;;;;;;14.20;2.53;;;13.60;90.70;;;;;;4984069;28;20338;-86
2022/01/06 09:50:40;;;;;;;4.45;2.30;;;13.70;90.60;;;;;;4967404;28;20019;-86
2022/01/06 09:53:06;;;;;;;4.47;2.10;;;14.00;90.20;;;;;;4985182;28;20387;-86
2022/01/06 09:55:34;;;;;;;4.35;2.33;;;14.90;88.70;;;;;;4986833;28;20054;-86
2022/01/06 09:58:01;;;;;;;5.65;2.15;;;15.10;87.60;;;;;;4968498;28;20027;-86
2022/01/06 10:00:29;;;;;;;4.10;2.20;;;15.10;86.90;;;;;;4987480;28;20430;-86
2022/01/06 10:03:01;;;;;;;4.03;2.33;;;15.70;85.50;;;;;;4969731;28;20027;-86
2022/01/06 10:05:44;;;;;;;8.18;2.38;;;15.30;85.40;;;;;;4953683;28;20110;-86
2022/01/06 10:08:11;;;;;;;5.40;2.50;;;14.60;86.60;;;;;;4984936;28;20041;-87
2022/01/06 10:10:37;;;;;;;3.60;2.00;;;14.20;87.70;;;;;;4967148;28;20030;-85
2022/01/06 10:13:07;;;;;;;6.72;2.22;;;14.50;87.10;;;;;;4996502;28;20026;-86
2022/01/06 10:15:38;;;;;;;5.28;1.98;;;14.60;85.70;;;;;;4985581;28;20035;-86
2022/01/06 10:18:15;;;;;;;6.82;1.80;;;14.30;86.20;;;;;;4986861;28;20043;-86
2022/01/06 10:20:42;;;;;;;6.88;2.08;;;14.70;85.60;;;;;;4973016;28;20487;-86
2022/01/06 10:23:14;;;;;;;4.45;1.52;;;15.00;84.40;;;;;;4968248;28;20022;-87
2022/01/06 10:25:51;;;;;;;2.47;1.27;;;15.20;83.10;;;;;;4968793;28;20042;-86
2022/01/06 10:28:21;;;;;;;3.45;1.45;;;15.10;82.00;;;;;;4953601;28;20038;-86
2022/01/06 10:30:49;;;;;;;5.25;1.73;;;15.30;81.20;;;;;;4992178;28;20085;-86
2022/01/06 10:33:36;;;;;;;9.40;1.83;;;15.20;81.10;;;;;;4996599;28;20023;-86
2022/01/06 10:36:09;;;;;;;5.57;1.77;;;15.20;80.90;;;;;;4995393;28;20042;-85
2022/01/06 10:38:36;;;;;;;3.17;1.70;;;15.30;80.30;;;;;;4978482;28;20086;-87
2022/01/06 10:41:16;;;;;;;4.10;1.60;;;15.30;80.00;;;;;;4978350;28;20011;-86
2022/01/06 10:43:49;;;;;;;3.15;1.50;;;15.00;80.50;;;;;;4973528;28;20034;-85
2022/01/06 10:46:25;;;;;;;2.90;1.73;;;15.30;80.60;;;;;;4971124;28;20034;-86
2022/01/06 10:49:00;;;;;;;8.02;1.60;;;15.60;80.40;;;;;;4984109;28;20043;-85
2022/01/06 10:51:46;;;;;;;2.67;1.20;;;16.00;79.10;;;;;;4978758;28;20053;-86
2022/01/06 10:54:15;;;;;;;4.28;1.38;;;15.40;79.40;;;;;;4982895;28;20058;-86
2022/01/06 10:56:42;;;;;;;3.05;1.70;;;15.20;80.00;;;;;;4966049;28;20034;-86
2022/01/06 10:59:08;;;;;;;8.65;1.77;;;15.80;79.70;;;;;;4968802;28;20042;-87
2022/01/06 11:01:34;;;;;;;2.05;1.55;;;15.90;79.50;;;;;;4969649;28;20027;-85
2022/01/06 11:04:01;;;;;;;3.17;1.80;;;16.00;79.10;;;;;;4965935;28;20562;-87
2022/01/06 11:06:29;;;;;;;6.10;2.00;;;15.60;79.60;;;;;;4965195;28;20033;-86
2022/01/06 11:08:56;;;;;;;2.80;1.67;;;14.30;81.30;;;;;;4988712;28;20031;-86
2022/01/06 11:14:09;;;;;;;4.78;1.83;;;13.60;84.90;;;;;;4983143;28;20034;-86
2022/01/06 11:16:35;;;;;;;4.18;1.80;;;14.30;83.10;;;;;;4982595;28;20150;-87
2022/01/06 11:19:01;;;;;;;4.82;1.80;;;14.80;82.40;;;;;;4964270;28;20050;-86
2022/01/06 11:21:39;;;;;;;3.42;1.75;;;15.00;81.90;;;;;;4971487;28;20042;-85
2022/01/06 11:24:10;;;;;;;3.45;1.73;;;15.40;80.40;;;;;;4982534;28;20124;-86
2022/01/06 11:26:36;;;;;;;6.78;1.85;;;14.60;81.40;;;;;;4969602;28;20031;-87
2022/01/06 11:29:03;;;;;;;5.07;2.13;;;13.50;83.30;;;;;;4974670;28;20065;-85
2022/01/06 11:31:40;;;;;;;4.80;1.95;;;12.60;85.10;;;;;;4989826;28;20559;-87
2022/01/06 11:34:17;;;;;;;4.70;1.80;;;11.20;88.50;;;;;;4984183;28;20053;-87
2022/01/06 11:36:46;;;;;;;4.80;1.98;;;10.60;90.50;;;;;;4966866;28;20038;-86
2022/01/06 11:39:38;;;;;;;4.70;1.98;;;11.30;90.30;;;;;;4968563;28;20471;-85
2022/01/06 11:42:12;;;;;;;3.90;2.13;;;12.10;88.00;;;;;;4982325;28;20062;-84
2022/01/06 11:44:48;;;;;;;5.93;2.08;;;12.10;88.70;;;;;;4990179;28;20037;-86
2022/01/06 11:47:14;;;;;;;9.13;2.25;;;12.20;88.90;;;;;;4966811;28;20035;-86
2022/01/06 11:49:44;;;;;;;4.32;2.25;;;11.70;89.10;;;;;;4972052;28;20038;-87
2022/01/06 11:52:16;;;;;;;7.07;2.38;;;10.90;90.60;;;;;;4970085;28;20054;-86
2022/01/06 11:54:55;;;;;;;4.45;2.45;;;10.30;91.60;;;;;;4988287;28;20054;-86
2022/01/06 11:57:35;;;;;;;6.68;2.35;;;9.60;92.50;;;;;;4972446;28;20071;-85
2022/01/06 12:00:21;;;;;;;4.20;1.98;;;9.00;93.70;;;;;;4974059;28;20047;-85
2022/01/06 12:02:56;;;;;;;;;;;8.60;94.90;;;;;;4971072;28;20098;-85
2022/01/06 12:05:23;;;;;;;9.63;2.07;;;8.10;96.00;;;;;;4989519;28;19909;-85
2022/01/06 12:07:54;;;;;;;6.43;2.47;;;7.90;97.00;;;;;;4994745;28;20266;-86
2022/01/06 12:10:21;;;;;;;5.95;2.25;;;7.70;98.00;;;;;;4988837;28;20046;-87
2022/01/06 12:12:50;;;;;;;4.60;2.58;;;7.50;99.00;;;;;;4970304;28;20058;-85
2022/01/06 12:15:19;;;;;;;6.15;2.47;;;7.30;99.90;;;;;;4970414;28;20620;-86
2022/01/06 12:17:51;;;;;;;11.27;3.00;;;7.20;99.90;;;;;;4993420;28;20091;-84
2022/01/06 12:20:23;;;;;;;7.57;2.28;;;7.30;99.90;;;;;;4980168;28;20679;-85
2022/01/06 12:22:49;;;;;;;7.85;2.70;;;7.20;99.90;;;;;;4979505;28;20029;-85
2022/01/06 12:25:15;;;;;;;5.80;2.60;;;7.00;99.90;;;;;;4979242;28;20078;-85
2022/01/06 12:27:48;;;;;;;9.32;2.35;;;6.90;99.90;;;;;;4969390;28;20022;-85
2022/01/06 12:30:17;;;;;;;6.70;2.25;;;6.90;99.90;;;;;;4992964;28;20023;-85
2022/01/06 12:32:56;;;;;;;7.63;2.75;;;6.90;99.90;;;;;;4998305;28;20026;-85
2022/01/06 12:35:51;;;;;;;4.60;1.55;;;7.00;99.90;;;;;;4999588;28;20086;-84
2022/01/06 12:38:32;;;;;;;5.63;1.50;;;7.00;99.90;;;;;;4999786;28;20030;-85
2022/01/06 12:40:59;;;;;;;4.38;1.30;;;7.10;99.90;;;;;;4995601;28;20042;-85
2022/01/06 12:43:27;;;;;;;3.30;1.30;;;7.00;99.90;;;;;;5000461;28;20018;-84
2022/01/06 12:46:16;;;;;;;2.55;0.93;;;6.90;99.90;;;;;;4981456;28;20094;-85
2022/01/06 12:48:47;;;;;;;1.98;1.20;;;6.80;99.90;;;;;;4972076;28;20492;-85
2022/01/06 12:51:24;;;;;;;5.10;1.00;;;6.80;99.90;;;;;;4972334;28;20043;-86
2022/01/06 12:54:10;;;;;;;3.25;0.90;;;6.90;99.90;;;;;;4976040;28;20035;-85
2022/01/06 12:56:38;;;;;;;2.13;0.90;;;7.00;99.90;;;;;;4994655;28;20031;-85
2022/01/06 12:59:37;;;;;;;2.47;0.70;;;7.10;99.90;;;;;;4978384;28;20049;-86
2022/01/06 13:02:09;;;;;;;2.53;1.33;;;7.10;99.90;;;;;;4999325;28;20050;-84
2022/01/06 13:04:38;;;;;;;2.38;0.90;;;7.00;99.90;;;;;;5000311;28;20090;-86
2022/01/06 13:07:07;;;;;;;4.43;1.00;;;7.00;99.90;;;;;;4983557;28;20051;-84
2022/01/06 13:09:34;;;;;;;2.17;1.10;;;6.90;99.90;;;;;;5000007;28;20023;-84
2022/01/06 13:12:06;;;;;;;2.25;0.95;;;6.80;99.90;;;;;;4982680;28;20037;-85